Time;durP1;ratioP1;P1;durP2;ratioP2;P2;SDS_P1;SDS_P2;PMS_P1;PMS_P2;Temp;Humidity;BMP_temperature;BMP_pressure;BME280_temperature;BME280_humidity;BME280_pressure;Samples;Min_cycle;Max_cycle;Signal;HPM_P1;HPM_P2
2022/02/13 00:01:51;;;;;;;76.1;107.3;;;;;;;-5.3;75.9;100060;;;;
2022/02/13 00:12:51;;;;;;;65.7;90.5;;;;;;;-5.5;75.4;100060;;;;
2022/02/13 00:23:51;;;;;;;65.7;90.5;;;;;;;-5.4;76.7;100050;;;;
2022/02/13 00:34:51;;;;;;;65.7;90.5;;;;;;;-5.4;76.4;100040;;;;
2022/02/13 00:45:51;;;;;;;51.8;80.7;;;;;;;-5.4;78.6;100030;;;;
2022/02/13 00:55:51;;;;;;;51.8;80.7;;;;;;;-5.5;77.5;100010;;;;
2022/02/13 01:06:51;;;;;;;51.8;80.7;;;;;;;-5.7;77.1;100000;;;;
2022/02/13 01:16:51;;;;;;;46.1;60.1;;;;;;;-5.8;77.1;100000;;;;
2022/02/13 01:26:51;;;;;;;46.1;60.1;;;;;;;-5.9;77.3;99990;;;;
2022/02/13 01:36:51;;;;;;;46.1;60.1;;;;;;;-5.9;78.9;99990;;;;
2022/02/13 01:46:51;;;;;;;55.7;73.3;;;;;;;-5.9;78.8;99970;;;;
2022/02/13 01:56:51;;;;;;;55.7;73.3;;;;;;;-5.9;78.6;99950;;;;
2022/02/13 02:07:51;;;;;;;55.7;73.3;;;;;;;-5.9;78.5;99940;;;;
2022/02/13 02:18:51;;;;;;;58.1;73.8;;;;;;;-6;78.8;99920;;;;
2022/02/13 02:29:51;;;;;;;58.1;73.8;;;;;;;-6.1;78.7;99920;;;;
2022/02/13 02:39:51;;;;;;;58.1;73.8;;;;;;;-6.2;78.6;99920;;;;
2022/02/13 02:49:51;;;;;;;58.9;79.2;;;;;;;-6.3;79;99910;;;;
2022/02/13 02:59:51;;;;;;;58.9;79.2;;;;;;;-6.4;78.9;99890;;;;
2022/02/13 03:10:51;;;;;;;58.9;79.2;;;;;;;-6.3;79.4;99880;;;;
2022/02/13 03:20:51;;;;;;;56.1;80.9;;;;;;;-6.3;79.6;99870;;;;
2022/02/13 03:30:51;;;;;;;56.1;80.9;;;;;;;-6.4;79.3;99860;;;;
2022/02/13 03:41:52;;;;;;;52;74.4;;;;;;;-6.3;79.5;99860;;;;
2022/02/13 03:51:51;;;;;;;52;74.4;;;;;;;-6.4;79.5;99860;;;;
2022/02/13 04:02:55;;;;;;;52;74.4;;;;;;;-6.4;80;99860;;;;
2022/02/13 04:12:51;;;;;;;47.2;67.8;;;;;;;-6.6;79.2;99840;;;;
2022/02/13 04:23:51;;;;;;;47.2;67.8;;;;;;;-6.5;80;99840;;;;
2022/02/13 04:33:51;;;;;;;47.2;67.8;;;;;;;-6.4;80.1;99820;;;;
2022/02/13 04:44:51;;;;;;;49.9;69.8;;;;;;;-6.5;79.8;99800;;;;
2022/02/13 04:55:51;;;;;;;49.9;69.8;;;;;;;-6.7;79.9;99800;;;;
2022/02/13 05:05:51;;;;;;;49.9;69.8;;;;;;;-6.7;80.4;99800;;;;
2022/02/13 05:16:51;;;;;;;45.5;58.9;;;;;;;-6.7;80.1;99780;;;;
2022/02/13 05:26:51;;;;;;;45.5;58.9;;;;;;;-6.7;80.3;99770;;;;
2022/02/13 05:37:51;;;;;;;45.5;58.9;;;;;;;-6.7;80.5;99770;;;;
2022/02/13 05:48:51;;;;;;;43.3;56.6;;;;;;;-6.5;81.8;99750;;;;
2022/02/13 05:58:51;;;;;;;43.3;56.6;;;;;;;-6.6;80.8;99750;;;;
2022/02/13 06:09:51;;;;;;;43.3;56.6;;;;;;;-6.6;80.7;99730;;;;
2022/02/13 06:19:51;;;;;;;44.9;59.3;;;;;;;-6.4;81.1;99710;;;;
2022/02/13 06:30:51;;;;;;;44.9;59.3;;;;;;;-6.3;80.8;99710;;;;
2022/02/13 06:41:51;;;;;;;48.6;60.9;;;;;;;-6.2;80.5;99700;;;;
2022/02/13 06:51:51;;;;;;;48.6;60.9;;;;;;;-6;80.7;99700;;;;
2022/02/13 07:01:51;;;;;;;48.6;60.9;;;;;;;-5.7;80.9;99680;;;;
2022/02/13 07:12:51;;;;;;;65;88.6;;;;;;;-5.3;80.8;99690;;;;
2022/02/13 07:22:51;;;;;;;65;88.6;;;;;;;-5;80.5;99670;;;;
2022/02/13 07:32:51;;;;;;;65;88.6;;;;;;;-4.5;80.3;99660;;;;
2022/02/13 07:42:52;;;;;;;74;89;;;;;;;-4.1;80.2;99660;;;;
2022/02/13 07:53:51;;;;;;;74;89;;;;;;;-3.5;79.8;99660;;;;
2022/02/13 08:03:51;;;;;;;74;89;;;;;;;-3;79.4;99660;;;;
2022/02/13 08:14:51;;;;;;;78.6;91;;;;;;;-2.4;78.5;99660;;;;
2022/02/13 08:25:51;;;;;;;78.6;91;;;;;;;-1.8;77.5;99640;;;;
2022/02/13 08:35:51;;;;;;;78.6;91;;;;;;;-1.2;76.6;99630;;;;
2022/02/13 08:45:51;;;;;;;73.6;82.3;;;;;;;-0.6;74.1;99620;;;;
2022/02/13 08:55:51;;;;;;;73.6;82.3;;;;;;;0.1;72.8;99620;;;;
2022/02/13 09:06:51;;;;;;;73.6;82.3;;;;;;;0.8;72.5;99630;;;;
2022/02/13 09:16:51;;;;;;;64;73.3;;;;;;;1.5;69.8;99620;;;;
2022/02/13 09:26:51;;;;;;;64;73.3;;;;;;;2.2;69;99620;;;;
2022/02/13 09:36:51;;;;;;;64;73.3;;;;;;;2.9;65.1;99610;;;;
2022/02/13 09:47:51;;;;;;;43.5;49.3;;;;;;;3.6;62.2;99610;;;;
2022/02/13 09:58:51;;;;;;;43.5;49.3;;;;;;;4.3;55.5;99600;;;;
2022/02/13 10:08:51;;;;;;;43.5;49.3;;;;;;;4.7;53;99590;;;;
2022/02/13 10:18:51;;;;;;;16.5;21.8;;;;;;;5.1;51.7;99580;;;;
2022/02/13 10:28:51;;;;;;;16.5;21.8;;;;;;;5.6;47.3;99560;;;;
2022/02/13 10:39:51;;;;;;;16.5;21.8;;;;;;;6;46.9;99540;;;;
2022/02/13 10:49:52;;;;;;;10.5;12.9;;;;;;;6.4;47.2;99540;;;;
2022/02/13 11:00:51;;;;;;;10.5;12.9;;;;;;;6.9;40.4;99510;;;;
2022/02/13 11:10:52;;;;;;;7.3;9.6;;;;;;;7.3;39.5;99500;;;;
2022/02/13 11:20:52;;;;;;;7.3;9.6;;;;;;;7.7;37.3;99480;;;;
2022/02/13 11:31:53;;;;;;;7.3;9.6;;;;;;;7.5;39.7;99470;;;;
2022/02/13 11:41:51;;;;;;;5.1;7.7;;;;;;;7.6;37.8;99460;;;;
2022/02/13 11:52:51;;;;;;;5.1;7.7;;;;;;;7.6;38.5;99440;;;;
2022/02/13 12:02:52;;;;;;;5.1;7.7;;;;;;;7.9;38;99430;;;;
2022/02/13 12:13:51;;;;;;;5.6;11.4;;;;;;;8.1;37.4;99410;;;;
2022/02/13 12:23:51;;;;;;;5.6;11.4;;;;;;;8.1;36.5;99400;;;;
2022/02/13 12:33:51;;;;;;;5.6;11.4;;;;;;;8.3;35.9;99390;;;;
2022/02/13 12:44:51;;;;;;;7.1;11.4;;;;;;;8.7;37.5;99380;;;;
2022/02/13 12:55:51;;;;;;;7.1;11.4;;;;;;;8.9;36.6;99370;;;;
2022/02/13 13:05:51;;;;;;;7.1;11.4;;;;;;;8.8;36.3;99350;;;;
2022/02/13 13:16:51;;;;;;;5.5;8.7;;;;;;;8.9;35.8;99340;;;;
2022/02/13 13:27:51;;;;;;;5.5;8.7;;;;;;;8.8;35.5;99330;;;;
2022/02/13 13:37:51;;;;;;;5.5;8.7;;;;;;;8.6;36.9;99320;;;;
2022/02/13 13:47:52;;;;;;;6.6;11.3;;;;;;;8.2;37.8;99320;;;;
2022/02/13 13:57:51;;;;;;;6.6;11.3;;;;;;;8;37.2;99310;;;;
2022/02/13 14:07:51;;;;;;;6.6;11.3;;;;;;;8;37.4;99300;;;;
2022/02/13 14:17:51;;;;;;;7.3;11.2;;;;;;;8;36.4;99280;;;;
2022/02/13 14:27:51;;;;;;;7.3;11.2;;;;;;;8;36.9;99260;;;;
2022/02/13 14:38:51;;;;;;;7.3;11.2;;;;;;;8;39.1;99250;;;;
2022/02/13 14:49:51;;;;;;;7.2;11;;;;;;;7.7;39.2;99240;;;;
2022/02/13 14:59:51;;;;;;;7.2;11;;;;;;;7.2;39.6;99230;;;;
2022/02/13 15:10:51;;;;;;;6.7;9.8;;;;;;;6.6;40.5;99220;;;;
2022/02/13 15:20:52;;;;;;;6.7;9.8;;;;;;;6.1;41.2;99220;;;;
2022/02/13 15:31:51;;;;;;;6.7;9.8;;;;;;;5.5;42.3;99210;;;;
2022/02/13 15:42:51;;;;;;;8.7;11.5;;;;;;;4.7;44;99210;;;;
2022/02/13 15:52:52;;;;;;;8.7;11.5;;;;;;;4.1;44.9;99210;;;;
2022/02/13 16:02:51;;;;;;;8.7;11.5;;;;;;;3.4;46.8;99210;;;;
2022/02/13 16:13:54;;;;;;;12.8;16.5;;;;;;;2.9;47.9;99210;;;;
2022/02/13 16:24:07;;;;;;;12.8;16.5;;;;;;;2.4;48.9;99210;;;;
2022/02/13 16:33:51;;;;;;;12.8;16.5;;;;;;;2.1;50.1;99210;;;;
2022/02/13 16:43:51;;;;;;;36.2;45.9;;;;;;;1.8;51.4;99210;;;;
2022/02/13 16:53:52;;;;;;;36.2;45.9;;;;;;;1.4;52.1;99200;;;;
2022/02/13 17:03:51;;;;;;;36.2;45.9;;;;;;;1.3;52.4;99200;;;;
2022/02/13 17:14:51;;;;;;;43.5;60;;;;;;;1.1;53.5;99210;;;;
2022/02/13 17:24:51;;;;;;;43.5;60;;;;;;;0.7;53.6;99210;;;;
2022/02/13 17:34:51;;;;;;;43.5;60;;;;;;;0.2;54.3;99200;;;;
2022/02/13 17:45:51;;;;;;;32.6;42.1;;;;;;;1.4;48;99190;;;;
2022/02/13 17:55:53;;;;;;;32.6;42.1;;;;;;;1.1;49;99190;;;;
2022/02/13 18:06:51;;;;;;;32.6;42.1;;;;;;;0.6;50.1;99190;;;;
2022/02/13 18:17:51;;;;;;;21.1;27.2;;;;;;;0.4;49.2;99180;;;;
2022/02/13 18:27:53;;;;;;;21.1;27.2;;;;;;;0.1;49;99180;;;;
2022/02/13 18:38:51;;;;;;;21.5;26.6;;;;;;;-0.4;50.5;99170;;;;
2022/02/13 18:49:51;;;;;;;21.5;26.6;;;;;;;-0.8;50.5;99170;;;;
2022/02/13 19:00:51;;;;;;;21.5;26.6;;;;;;;-1.3;53.6;99170;;;;
2022/02/13 19:10:51;;;;;;;35.7;46.2;;;;;;;-1.5;53.8;99160;;;;
2022/02/13 19:21:51;;;;;;;35.7;46.2;;;;;;;-1.6;52.9;99160;;;;
2022/02/13 19:31:51;;;;;;;35.7;46.2;;;;;;;-1.9;54.5;99150;;;;
2022/02/13 19:42:51;;;;;;;41.6;52.5;;;;;;;-2.2;54;99150;;;;
2022/02/13 19:53:52;;;;;;;41.6;52.5;;;;;;;-2.4;53.9;99140;;;;
2022/02/13 20:03:51;;;;;;;41.6;52.5;;;;;;;-2.4;55;99150;;;;
2022/02/13 20:14:51;;;;;;;43.8;53.3;;;;;;;-2.8;56.4;99130;;;;
2022/02/13 20:25:51;;;;;;;43.8;53.3;;;;;;;-2.9;55.1;99130;;;;
2022/02/13 20:36:51;;;;;;;43.8;53.3;;;;;;;-2.2;50.8;99110;;;;
2022/02/13 20:47:51;;;;;;;35.3;42.5;;;;;;;-2.5;54.5;99120;;;;
2022/02/13 20:57:51;;;;;;;35.3;42.5;;;;;;;-2.8;54.7;99100;;;;
2022/02/13 21:07:51;;;;;;;35.3;42.5;;;;;;;-1.9;53.3;99090;;;;
2022/02/13 21:17:51;;;;;;;44.5;62.2;;;;;;;-0.8;49.9;99070;;;;
2022/02/13 21:28:51;;;;;;;44.5;62.2;;;;;;;-1.1;50.2;99080;;;;
2022/02/13 21:38:51;;;;;;;22.4;29.1;;;;;;;-1.8;52.8;99070;;;;
2022/02/13 21:48:51;;;;;;;22.4;29.1;;;;;;;-2.3;54.5;99060;;;;
2022/02/13 21:59:51;;;;;;;22.4;29.1;;;;;;;-2.6;54.8;99050;;;;
2022/02/13 22:09:51;;;;;;;74.2;91.8;;;;;;;-2.9;55.3;99050;;;;
2022/02/13 22:19:51;;;;;;;74.2;91.8;;;;;;;-3.2;55.8;99040;;;;
2022/02/13 22:30:51;;;;;;;74.2;91.8;;;;;;;-3.4;57.1;99030;;;;
2022/02/13 22:41:51;;;;;;;48;56.7;;;;;;;-3.5;57.3;99030;;;;
2022/02/13 22:52:51;;;;;;;48;56.7;;;;;;;-3.5;59.2;99020;;;;
2022/02/13 23:02:51;;;;;;;48;56.7;;;;;;;-3.6;59.4;99000;;;;
2022/02/13 23:13:51;;;;;;;62;78;;;;;;;-3.5;59.1;98990;;;;
2022/02/13 23:23:52;;;;;;;62;78;;;;;;;-3.4;59.5;98990;;;;
2022/02/13 23:34:51;;;;;;;62;78;;;;;;;-3.6;60.3;98980;;;;
2022/02/13 23:45:51;;;;;;;50.1;64.6;;;;;;;-3.8;62.5;98950;;;;
2022/02/13 23:56:52;;;;;;;50.1;64.6;;;;;;;-3.8;62;98940;;;;
